Time;durP1;ratioP1;P1;durP2;ratioP2;P2;SDS_P1;SDS_P2;PMS_P1;PMS_P2;Temp;Humidity;BMP_temperature;BMP_pressure;BME280_temperature;BME280_humidity;BME280_pressure;Samples;Min_cycle;Max_cycle;Signal;HPM_P1;HPM_P2
2024/03/02 00:01:07;;;;;;;117.15;11.27;;;7.30;90.00;;;;;;5001687;28;20497;-63
2024/03/02 00:03:33;;;;;;;63.42;10.30;;;7.30;90.00;;;;;;4999546;28;20069;-63
2024/03/02 00:05:59;;;;;;;83.07;9.80;;;7.20;90.10;;;;;;5002601;28;20048;-63
2024/03/02 00:08:28;;;;;;;100.15;10.98;;;7.20;90.20;;;;;;5004404;28;20040;-63
2024/03/02 00:11:02;;;;;;;36.22;9.25;;;7.10;90.30;;;;;;5002243;28;20034;-63
2024/03/02 00:13:29;;;;;;;24.40;9.85;;;7.10;90.50;;;;;;4998494;28;20034;-63
2024/03/02 00:15:56;;;;;;;21.23;9.13;;;7.10;90.50;;;;;;5000138;28;20646;-63
2024/03/02 00:18:24;;;;;;;14.15;8.85;;;7.10;90.60;;;;;;4999218;28;20060;-62
2024/03/02 00:20:56;;;;;;;16.52;8.50;;;7.10;90.60;;;;;;5002049;28;20034;-63
2024/03/02 00:23:23;;;;;;;12.90;8.38;;;7.10;90.60;;;;;;4999886;28;20038;-64
2024/03/02 00:25:53;;;;;;;9.80;8.07;;;7.10;90.50;;;;;;4999519;28;20049;-63
2024/03/02 00:28:24;;;;;;;10.15;8.25;;;7.10;90.60;;;;;;4997007;28;20042;-63
2024/03/02 00:30:56;;;;;;;9.75;7.97;;;7.10;90.50;;;;;;4999976;28;20125;-63
2024/03/02 00:33:22;;;;;;;23.98;8.25;;;7.10;90.40;;;;;;4999592;28;20034;-64
2024/03/02 00:35:49;;;;;;;10.73;7.93;;;7.20;90.40;;;;;;5001872;28;20176;-63
2024/03/02 00:38:15;;;;;;;10.20;8.02;;;7.20;90.40;;;;;;4997895;28;20514;-63
2024/03/02 00:40:42;;;;;;;23.65;7.93;;;7.20;90.40;;;;;;5002261;28;20242;-62
2024/03/02 00:43:19;;;;;;;12.15;8.10;;;7.20;90.30;;;;;;4996629;28;20091;-62
2024/03/02 00:45:44;;;;;;;12.45;8.32;;;7.20;90.20;;;;;;5001046;28;20038;-61
2024/03/02 00:48:10;;;;;;;21.33;8.85;;;7.20;90.10;;;;;;5003851;28;20521;-63
2024/03/02 00:50:36;;;;;;;10.55;8.15;;;7.20;90.10;;;;;;4999813;28;20129;-63
2024/03/02 00:53:02;;;;;;;11.43;8.25;;;7.20;90.10;;;;;;5003185;28;20453;-63
2024/03/02 00:55:28;;;;;;;12.38;8.93;;;7.20;90.10;;;;;;5002684;28;20034;-62
2024/03/02 00:57:53;;;;;;;11.50;9.13;;;7.20;90.20;;;;;;5002158;28;20038;-62
2024/03/02 01:00:19;;;;;;;15.57;9.38;;;7.20;90.20;;;;;;5003476;28;20038;-63
2024/03/02 01:02:46;;;;;;;17.20;10.07;;;7.20;90.20;;;;;;5006688;28;20042;-61
2024/03/02 01:05:11;;;;;;;22.15;9.73;;;7.20;90.20;;;;;;5005886;28;20046;-61
2024/03/02 01:07:38;;;;;;;21.98;10.23;;;7.20;90.30;;;;;;5009235;28;20042;-63
2024/03/02 01:10:04;;;;;;;16.35;9.77;;;7.20;90.20;;;;;;5009824;28;20045;-62
2024/03/02 01:12:30;;;;;;;20.98;10.80;;;7.20;90.20;;;;;;5002173;28;20399;-62
2024/03/02 01:14:56;;;;;;;19.35;11.63;;;7.20;90.20;;;;;;5005375;28;20045;-62
2024/03/02 01:17:22;;;;;;;20.75;11.20;;;7.20;90.20;;;;;;5002784;28;20050;-62
2024/03/02 01:19:47;;;;;;;18.25;12.38;;;7.20;90.20;;;;;;5007944;28;20515;-60
2024/03/02 01:22:13;;;;;;;71.53;12.68;;;7.20;90.20;;;;;;5004464;28;20120;-62
2024/03/02 01:24:39;;;;;;;80.55;13.38;;;7.20;90.20;;;;;;5008366;28;20038;-63
2024/03/02 01:27:04;;;;;;;40.90;13.30;;;7.20;90.20;;;;;;5004559;28;20057;-63
2024/03/02 01:29:30;;;;;;;48.25;12.45;;;7.20;90.10;;;;;;5003466;28;20549;-62
2024/03/02 01:31:55;;;;;;;41.65;12.55;;;7.20;90.20;;;;;;5007797;28;20038;-62
2024/03/02 01:34:21;;;;;;;42.22;14.10;;;7.20;90.20;;;;;;5001921;28;20255;-62
2024/03/02 01:36:46;;;;;;;69.18;13.40;;;7.10;90.20;;;;;;5008604;28;20521;-60
2024/03/02 01:39:12;;;;;;;79.88;12.38;;;7.10;90.20;;;;;;5007990;28;20569;-61
2024/03/02 01:41:38;;;;;;;53.00;11.70;;;7.10;90.20;;;;;;5002975;28;20026;-62
2024/03/02 01:44:04;;;;;;;91.85;12.48;;;7.00;90.20;;;;;;5003632;28;20030;-63
2024/03/02 01:46:29;;;;;;;50.90;10.80;;;7.00;90.30;;;;;;5005252;28;20102;-62
2024/03/02 01:48:55;;;;;;;14.18;9.23;;;6.90;90.40;;;;;;5000330;28;20046;-62
2024/03/02 01:51:21;;;;;;;34.35;9.65;;;6.90;90.50;;;;;;5003373;28;20053;-63
2024/03/02 01:53:46;;;;;;;29.42;9.13;;;6.90;90.60;;;;;;5002355;28;20189;-62
2024/03/02 01:56:12;;;;;;;17.35;8.63;;;6.90;90.70;;;;;;5003065;28;20034;-63
2024/03/02 01:58:38;;;;;;;14.35;9.25;;;6.90;90.70;;;;;;5001731;28;20030;-62
2024/03/02 02:01:03;;;;;;;13.27;8.63;;;6.90;90.70;;;;;;5002884;28;20156;-62
2024/03/02 02:03:29;;;;;;;12.82;9.70;;;6.90;90.80;;;;;;5005119;28;20037;-63
2024/03/02 02:05:55;;;;;;;33.85;9.80;;;6.90;90.80;;;;;;5003952;28;20168;-62
2024/03/02 02:08:20;;;;;;;31.52;9.45;;;6.90;90.80;;;;;;5005479;28;20045;-62
2024/03/02 02:10:46;;;;;;;12.63;9.32;;;6.90;90.70;;;;;;5005440;28;20041;-61
2024/03/02 02:13:12;;;;;;;20.02;9.55;;;7.00;90.70;;;;;;5004795;28;20065;-62
2024/03/02 02:15:37;;;;;;;11.30;9.02;;;7.00;90.70;;;;;;5003180;28;20038;-63
2024/03/02 02:18:03;;;;;;;16.38;9.43;;;7.00;90.70;;;;;;5004613;28;20022;-62
2024/03/02 02:20:29;;;;;;;28.23;10.50;;;7.00;90.60;;;;;;5004990;28;20049;-62
2024/03/02 02:23:05;;;;;;;18.35;9.80;;;7.00;90.60;;;;;;5004763;28;20030;-62
2024/03/02 02:25:31;;;;;;;21.17;10.25;;;7.10;90.60;;;;;;5001113;28;20801;-63
2024/03/02 02:27:57;;;;;;;24.23;10.52;;;7.10;90.50;;;;;;5005435;28;20121;-62
2024/03/02 02:30:26;;;;;;;29.45;12.15;;;7.00;90.50;;;;;;5005948;28;20030;-62
2024/03/02 02:32:52;;;;;;;21.90;11.20;;;7.10;90.50;;;;;;4998827;28;20095;-61
2024/03/02 02:35:18;;;;;;;18.85;10.85;;;7.10;90.50;;;;;;5003186;28;20061;-63
2024/03/02 02:37:45;;;;;;;25.45;11.35;;;7.00;90.50;;;;;;5002765;28;20072;-61
2024/03/02 02:40:12;;;;;;;25.75;10.40;;;7.00;90.40;;;;;;5006937;28;20041;-61
2024/03/02 02:42:38;;;;;;;21.17;11.10;;;7.00;90.40;;;;;;5003222;28;20520;-63
2024/03/02 02:45:04;;;;;;;33.47;10.30;;;7.00;90.40;;;;;;5003691;28;20042;-63
2024/03/02 02:47:30;;;;;;;14.65;10.88;;;6.90;90.50;;;;;;5007199;28;20517;-62
2024/03/02 02:49:56;;;;;;;21.13;10.30;;;6.90;90.50;;;;;;5004231;28;20038;-62
2024/03/02 02:52:22;;;;;;;16.42;10.20;;;6.90;90.60;;;;;;5005531;28;20041;-62
2024/03/02 02:54:47;;;;;;;18.02;9.73;;;6.90;90.60;;;;;;5001066;28;20029;-63
2024/03/02 02:57:13;;;;;;;11.82;9.07;;;6.90;90.60;;;;;;5006498;28;20567;-61
2024/03/02 02:59:38;;;;;;;29.63;9.60;;;6.90;90.60;;;;;;5001581;28;20034;-62
2024/03/02 03:02:05;;;;;;;66.82;10.85;;;6.90;90.60;;;;;;4999460;28;20046;-62
2024/03/02 03:04:30;;;;;;;36.08;9.52;;;6.90;90.50;;;;;;5002348;28;20034;-62
2024/03/02 03:06:56;;;;;;;26.02;9.68;;;6.90;90.80;;;;;;4998927;28;20049;-62
2024/03/02 03:09:21;;;;;;;35.00;9.45;;;6.90;90.40;;;;;;4998333;28;20034;-62
2024/03/02 03:11:47;;;;;;;14.02;9.25;;;6.90;90.50;;;;;;5001850;28;20120;-61
2024/03/02 03:14:12;;;;;;;34.42;9.32;;;6.80;90.60;;;;;;4997680;28;20566;-61
2024/03/02 03:16:38;;;;;;;15.55;9.05;;;6.80;90.60;;;;;;5000475;28;20409;-61
2024/03/02 03:19:03;;;;;;;20.50;9.55;;;6.80;90.60;;;;;;5000988;28;20034;-61
2024/03/02 03:21:29;;;;;;;12.30;9.02;;;6.80;90.60;;;;;;4998392;28;20028;-61
2024/03/02 03:23:55;;;;;;;16.20;9.40;;;6.80;90.60;;;;;;4998102;28;20133;-62
2024/03/02 03:26:20;;;;;;;17.48;9.35;;;6.80;90.60;;;;;;5007843;28;20022;-61
2024/03/02 03:28:46;;;;;;;28.85;9.63;;;6.80;90.50;;;;;;4998152;28;20461;-61
2024/03/02 03:31:12;;;;;;;14.95;9.27;;;6.80;90.40;;;;;;4999230;28;20042;-60
2024/03/02 03:33:37;;;;;;;12.65;8.90;;;6.70;90.40;;;;;;4999221;28;20053;-63
2024/03/02 03:36:03;;;;;;;10.18;8.57;;;6.70;90.60;;;;;;4999006;28;20049;-62
2024/03/02 03:38:30;;;;;;;12.18;9.15;;;6.70;90.50;;;;;;4999316;28;20038;-60
2024/03/02 03:40:55;;;;;;;10.38;8.82;;;6.60;90.50;;;;;;5000277;28;20374;-61
2024/03/02 03:43:21;;;;;;;11.52;9.30;;;6.60;90.60;;;;;;5004354;28;20030;-62
2024/03/02 03:45:46;;;;;;;10.10;8.60;;;6.50;90.70;;;;;;5003953;28;20072;-61
2024/03/02 03:48:12;;;;;;;12.02;9.52;;;6.50;90.70;;;;;;5002225;28;20034;-61
2024/03/02 03:50:38;;;;;;;13.15;9.40;;;6.50;90.80;;;;;;4998636;28;20125;-61
2024/03/02 03:53:03;;;;;;;12.95;9.80;;;6.40;90.90;;;;;;4998559;28;20042;-62
2024/03/02 03:55:29;;;;;;;13.98;10.02;;;6.50;90.90;;;;;;5006097;28;20116;-60
2024/03/02 03:57:55;;;;;;;15.43;10.43;;;6.40;90.90;;;;;;5003145;28;20536;-61
2024/03/02 04:00:20;;;;;;;14.85;11.32;;;6.40;90.90;;;;;;4999010;28;20051;-62
2024/03/02 04:02:46;;;;;;;15.15;10.57;;;6.50;91.00;;;;;;5002345;28;20045;-62
2024/03/02 04:05:11;;;;;;;14.25;10.40;;;6.40;91.10;;;;;;4999456;28;20088;-62
2024/03/02 04:07:40;;;;;;;14.02;10.65;;;6.50;91.10;;;;;;5005854;28;20041;-63
2024/03/02 04:10:10;;;;;;;17.08;11.65;;;6.50;91.10;;;;;;5002432;28;20062;-63
2024/03/02 04:12:37;;;;;;;15.13;10.80;;;6.50;91.20;;;;;;4997388;28;20124;-61
2024/03/02 04:15:06;;;;;;;14.52;10.70;;;6.50;91.10;;;;;;4997298;28;20041;-63
2024/03/02 04:17:33;;;;;;;14.20;10.77;;;6.50;91.10;;;;;;4998907;28;20032;-62
2024/03/02 04:19:59;;;;;;;14.55;11.25;;;6.50;91.10;;;;;;5003745;28;20057;-62
2024/03/02 04:22:25;;;;;;;16.55;11.35;;;6.50;91.10;;;;;;5007256;28;20121;-63
2024/03/02 04:24:51;;;;;;;14.85;11.38;;;6.50;91.10;;;;;;5004717;28;20378;-63
2024/03/02 04:27:17;;;;;;;14.88;11.27;;;6.50;91.10;;;;;;5010253;28;20120;-62
2024/03/02 04:29:42;;;;;;;16.50;12.57;;;6.40;91.10;;;;;;5003335;28;20041;-63
2024/03/02 04:32:08;;;;;;;28.85;12.52;;;6.40;91.10;;;;;;5007953;28;20022;-63
2024/03/02 04:34:33;;;;;;;37.00;12.52;;;6.40;91.10;;;;;;5004821;28;20026;-61
2024/03/02 04:36:59;;;;;;;161.57;16.05;;;6.40;91.50;;;;;;5000207;28;20062;-61
2024/03/02 04:39:25;;;;;;;122.70;13.73;;;6.30;91.10;;;;;;5005171;28;20038;-62
2024/03/02 04:41:50;;;;;;;207.25;15.15;;;6.30;91.10;;;;;;5005720;28;20036;-62
2024/03/02 04:44:16;;;;;;;175.38;14.15;;;6.20;91.10;;;;;;5007534;28;20725;-61
2024/03/02 04:46:41;;;;;;;164.80;13.55;;;6.10;91.10;;;;;;5006400;28;20137;-62
2024/03/02 04:49:07;;;;;;;126.30;14.23;;;6.10;91.20;;;;;;5006554;28;20030;-61
2024/03/02 04:51:33;;;;;;;138.77;14.43;;;5.90;91.20;;;;;;5008567;28;20042;-62
2024/03/02 04:53:58;;;;;;;102.63;15.07;;;6.00;91.30;;;;;;5006338;28;20037;-62
2024/03/02 04:56:44;;;;;;;154.90;14.30;;;5.90;91.30;;;;;;5005995;28;20037;-61
2024/03/02 04:59:10;;;;;;;91.47;13.18;;;5.90;91.30;;;;;;5004295;28;20167;-62
2024/03/02 05:01:36;;;;;;;95.80;13.57;;;5.80;91.40;;;;;;5006444;28;20034;-61
2024/03/02 05:04:01;;;;;;;24.88;11.68;;;5.80;91.50;;;;;;5002296;28;20088;-60
2024/03/02 05:06:27;;;;;;;44.67;12.75;;;5.80;91.60;;;;;;5002765;28;20026;-60
2024/03/02 05:08:52;;;;;;;35.72;11.82;;;5.80;92.00;;;;;;5004337;28;20121;-62
2024/03/02 05:14:06;;;;;;;135.50;16.77;;;5.90;91.70;;;;;;5003077;28;20060;-61
2024/03/02 05:16:35;;;;;;;99.72;13.43;;;5.90;91.50;;;;;;5004629;28;20512;-63
2024/03/02 05:19:01;;;;;;;132.68;13.60;;;5.90;91.50;;;;;;5002472;28;20046;-62
2024/03/02 05:21:27;;;;;;;114.50;13.68;;;5.90;91.40;;;;;;5002553;28;20050;-63
2024/03/02 05:23:52;;;;;;;16.67;11.15;;;5.90;91.40;;;;;;5006164;28;20041;-61
2024/03/02 05:26:18;;;;;;;78.88;12.50;;;5.90;91.50;;;;;;5004009;28;20124;-61
2024/03/02 05:28:43;;;;;;;112.68;14.75;;;5.90;91.60;;;;;;5003978;28;20038;-63
2024/03/02 05:31:15;;;;;;;153.90;14.02;;;5.90;91.60;;;;;;5001521;28;20046;-63
2024/03/02 05:33:41;;;;;;;132.35;13.25;;;5.90;91.80;;;;;;5000994;28;20034;-62
2024/03/02 05:36:07;;;;;;;150.98;14.52;;;5.90;91.40;;;;;;5003519;28;20437;-61
2024/03/02 05:38:34;;;;;;;117.97;13.95;;;5.90;91.30;;;;;;5004632;28;20073;-63
2024/03/02 05:41:00;;;;;;;120.40;13.02;;;5.90;91.30;;;;;;5000293;28;20498;-62
2024/03/02 05:43:26;;;;;;;152.68;13.65;;;5.90;91.30;;;;;;5000117;28;20053;-61
2024/03/02 05:45:51;;;;;;;106.60;13.18;;;5.80;91.20;;;;;;5004019;28;20038;-63
2024/03/02 05:48:17;;;;;;;111.90;12.55;;;5.80;91.30;;;;;;5001891;28;20072;-61
2024/03/02 05:50:42;;;;;;;123.25;13.45;;;5.80;91.30;;;;;;4999009;28;20112;-62
2024/03/02 05:53:08;;;;;;;243.00;15.50;;;5.70;91.30;;;;;;5001628;28;20069;-62
2024/03/02 05:55:34;;;;;;;178.93;13.10;;;5.70;91.40;;;;;;5002179;28;20033;-61
2024/03/02 06:00:31;;;;;;;122.30;13.65;;;5.70;91.40;;;;;;5000543;28;20391;-62
2024/03/02 06:02:57;;;;;;;130.50;13.63;;;5.70;91.40;;;;;;5000372;28;20672;-62
2024/03/02 06:05:22;;;;;;;115.88;12.82;;;5.60;91.40;;;;;;4995202;28;20038;-63
2024/03/02 06:07:48;;;;;;;17.45;10.85;;;5.60;91.40;;;;;;5002182;28;20468;-61
2024/03/02 06:10:14;;;;;;;66.25;12.07;;;5.50;91.40;;;;;;5005449;28;20046;-61
2024/03/02 06:12:40;;;;;;;78.22;12.18;;;5.50;91.50;;;;;;4999015;28;20041;-63
2024/03/02 06:15:06;;;;;;;65.43;11.52;;;5.50;91.60;;;;;;5003589;28;20088;-61
2024/03/02 06:17:32;;;;;;;111.95;13.20;;;5.50;91.60;;;;;;5001704;28;20173;-63
2024/03/02 06:19:57;;;;;;;100.22;14.48;;;5.60;91.60;;;;;;5005374;28;20623;-61
2024/03/02 06:22:24;;;;;;;50.25;13.85;;;5.60;91.70;;;;;;5000180;28;20446;-62
2024/03/02 06:24:50;;;;;;;77.72;13.63;;;5.60;91.60;;;;;;5001824;28;20034;-63
2024/03/02 06:27:16;;;;;;;76.25;13.65;;;5.60;91.60;;;;;;5004699;28;20321;-63
2024/03/02 06:29:42;;;;;;;16.27;12.02;;;5.60;91.60;;;;;;5003102;28;20413;-63
2024/03/02 06:32:08;;;;;;;82.05;12.57;;;5.60;91.70;;;;;;5001691;28;20022;-63
2024/03/02 06:34:33;;;;;;;91.32;13.57;;;5.70;91.70;;;;;;4998522;28;20037;-63
2024/03/02 06:36:59;;;;;;;112.40;12.55;;;5.70;91.60;;;;;;4999364;28;20038;-63
2024/03/02 06:39:25;;;;;;;150.93;13.85;;;5.70;91.50;;;;;;4998995;28;20413;-61
2024/03/02 06:41:51;;;;;;;124.35;13.95;;;5.70;91.40;;;;;;4998485;28;20117;-63
2024/03/02 06:44:17;;;;;;;98.90;11.05;;;5.70;91.30;;;;;;4997929;28;20121;-63
2024/03/02 06:46:42;;;;;;;102.38;11.55;;;5.70;91.30;;;;;;4999915;28;20516;-63
2024/03/02 06:49:10;;;;;;;89.05;10.65;;;5.70;91.20;;;;;;5003341;28;20068;-61
2024/03/02 06:51:36;;;;;;;99.28;10.60;;;5.60;91.10;;;;;;5003245;28;20038;-62
2024/03/02 06:54:01;;;;;;;63.05;9.90;;;5.60;91.20;;;;;;4996917;28;20044;-63
2024/03/02 06:56:27;;;;;;;135.60;12.30;;;5.60;91.30;;;;;;4998346;28;20424;-63
2024/03/02 06:58:52;;;;;;;102.35;11.07;;;5.50;91.40;;;;;;5002685;28;20371;-63
2024/03/02 07:01:20;;;;;;;85.72;11.80;;;5.50;91.40;;;;;;5004928;28;20519;-63
2024/03/02 07:03:45;;;;;;;94.28;12.68;;;5.50;91.40;;;;;;5005723;28;20469;-63
2024/03/02 07:06:17;;;;;;;80.30;11.93;;;5.40;91.50;;;;;;5080693;27;20409;-62
2024/03/02 07:08:43;;;;;;;47.20;11.70;;;5.50;91.60;;;;;;5052597;28;20723;-62
2024/03/02 07:11:09;;;;;;;63.22;11.98;;;5.50;91.70;;;;;;5055687;28;20034;-60
2024/03/02 07:13:35;;;;;;;56.53;11.65;;;5.50;91.80;;;;;;5060049;28;20033;-62
2024/03/02 07:18:33;;;;;;;50.08;11.05;;;5.50;91.70;;;;;;5060780;28;20050;-62
2024/03/02 07:21:00;;;;;;;76.30;11.65;;;5.50;91.70;;;;;;5057595;28;21325;-62
2024/03/02 07:23:30;;;;;;;52.70;11.27;;;5.50;91.70;;;;;;5081063;27;20044;-62
2024/03/02 07:25:56;;;;;;;61.33;12.63;;;5.60;91.80;;;;;;5080484;28;20483;-62
2024/03/02 07:28:23;;;;;;;61.30;11.65;;;5.60;91.90;;;;;;5082927;27;20518;-61
2024/03/02 07:31:01;;;;;;;76.55;12.05;;;5.50;91.90;;;;;;5079509;27;20039;-62
2024/03/02 07:33:26;;;;;;;93.82;13.10;;;5.60;92.10;;;;;;5078211;28;20575;-62
2024/03/02 07:35:54;;;;;;;84.80;12.65;;;5.60;92.10;;;;;;5076447;27;20043;-62
2024/03/02 07:38:20;;;;;;;102.45;12.95;;;5.60;92.10;;;;;;5077629;28;20033;-61
2024/03/02 07:40:45;;;;;;;51.15;11.68;;;5.70;92.20;;;;;;5082373;28;20029;-61
2024/03/02 07:43:11;;;;;;;85.45;13.10;;;5.70;92.20;;;;;;5083013;28;20029;-62
2024/03/02 07:45:37;;;;;;;63.25;13.23;;;5.70;92.30;;;;;;5079482;28;20044;-61
2024/03/02 07:48:03;;;;;;;68.68;13.95;;;5.70;92.40;;;;;;5079461;28;20516;-61
2024/03/02 07:50:30;;;;;;;63.55;13.13;;;5.80;92.50;;;;;;5083819;28;20036;-62
2024/03/02 07:52:56;;;;;;;80.22;12.40;;;5.70;92.50;;;;;;5076645;27;20380;-62
2024/03/02 07:55:23;;;;;;;71.38;13.00;;;5.80;92.60;;;;;;5078396;27;20036;-62
2024/03/02 07:57:49;;;;;;;97.30;12.68;;;5.90;92.60;;;;;;5076876;28;20105;-62
2024/03/02 08:00:15;;;;;;;81.15;13.32;;;5.90;92.60;;;;;;5079559;28;20063;-62
2024/03/02 08:02:42;;;;;;;81.53;12.60;;;5.90;92.60;;;;;;5073945;27;20068;-62
2024/03/02 08:05:08;;;;;;;49.13;12.30;;;5.90;92.60;;;;;;5076974;28;20087;-62
2024/03/02 08:07:34;;;;;;;47.60;10.98;;;6.00;92.60;;;;;;5075677;27;20511;-63
2024/03/02 08:09:59;;;;;;;60.50;11.98;;;6.00;92.60;;;;;;5075397;28;20067;-62
2024/03/02 08:12:25;;;;;;;75.07;12.55;;;6.10;92.60;;;;;;5078604;27;20056;-60
2024/03/02 08:14:51;;;;;;;26.17;10.63;;;6.10;92.60;;;;;;5072469;28;20056;-61
2024/03/02 08:17:16;;;;;;;70.28;11.98;;;6.10;92.50;;;;;;5065348;28;20502;-59
2024/03/02 08:19:42;;;;;;;55.42;11.90;;;6.10;92.60;;;;;;5064150;28;20040;-62
2024/03/02 08:22:08;;;;;;;36.60;11.07;;;6.20;92.60;;;;;;5063504;28;20037;-61
2024/03/02 08:24:34;;;;;;;15.32;9.80;;;6.30;92.70;;;;;;5065628;28;20480;-60
2024/03/02 08:27:00;;;;;;;38.38;10.35;;;6.30;92.70;;;;;;5062154;28;20056;-61
2024/03/02 08:29:26;;;;;;;48.95;11.95;;;6.40;92.70;;;;;;5064796;28;20036;-62
2024/03/02 08:31:51;;;;;;;36.13;12.00;;;6.40;92.60;;;;;;5060456;28;20033;-61
2024/03/02 08:34:17;;;;;;;24.02;11.45;;;6.50;92.60;;;;;;5065835;28;20032;-62
2024/03/02 08:36:42;;;;;;;31.10;10.95;;;6.60;92.60;;;;;;5065057;28;20055;-61
2024/03/02 08:39:15;;;;;;;36.58;11.77;;;6.60;92.70;;;;;;5064861;28;20037;-61
2024/03/02 08:41:44;;;;;;;20.85;12.40;;;6.70;92.80;;;;;;5066261;28;20047;-62
2024/03/02 08:44:10;;;;;;;39.72;11.43;;;6.80;92.80;;;;;;5061737;28;20049;-62
2024/03/02 08:46:37;;;;;;;22.60;11.50;;;6.80;92.80;;;;;;5064033;28;20025;-61
2024/03/02 08:49:02;;;;;;;33.40;12.20;;;6.90;92.80;;;;;;5065599;28;20032;-59
2024/03/02 08:51:28;;;;;;;19.13;11.40;;;7.00;92.80;;;;;;5065159;28;20028;-62
2024/03/02 08:53:54;;;;;;;18.60;10.98;;;7.10;93.20;;;;;;5064545;28;20552;-61
2024/03/02 08:56:21;;;;;;;19.25;10.73;;;7.10;92.80;;;;;;5059982;28;20029;-62
2024/03/02 08:58:47;;;;;;;16.42;10.77;;;7.20;92.70;;;;;;5066439;28;20499;-59
2024/03/02 09:01:12;;;;;;;17.50;10.85;;;7.30;92.70;;;;;;5066204;28;20033;-60
2024/03/02 09:03:38;;;;;;;18.35;11.23;;;7.40;92.70;;;;;;5062973;28;20511;-61
2024/03/02 09:06:04;;;;;;;13.68;10.73;;;7.50;92.60;;;;;;5066791;28;20053;-61
2024/03/02 09:08:29;;;;;;;18.52;11.40;;;7.50;92.40;;;;;;5064709;28;20033;-61
2024/03/02 09:10:56;;;;;;;14.52;10.93;;;7.60;92.30;;;;;;5064390;28;20036;-61
2024/03/02 09:13:22;;;;;;;13.52;10.82;;;7.60;92.20;;;;;;5064347;28;20166;-61
2024/03/02 09:15:48;;;;;;;19.80;10.63;;;7.60;92.60;;;;;;5061370;28;20115;-61
2024/03/02 09:18:13;;;;;;;15.75;11.05;;;7.70;92.20;;;;;;5063786;28;20483;-61
2024/03/02 09:20:39;;;;;;;16.45;10.55;;;7.70;92.20;;;;;;5064465;28;20044;-61
2024/03/02 09:23:04;;;;;;;13.35;9.82;;;7.80;92.10;;;;;;5066509;28;20385;-62
2024/03/02 09:25:30;;;;;;;15.05;10.07;;;7.80;92.00;;;;;;5067104;28;20044;-61
2024/03/02 09:27:56;;;;;;;12.73;10.07;;;7.80;92.00;;;;;;5060831;28;20532;-60
2024/03/02 09:30:22;;;;;;;13.68;9.40;;;7.80;91.90;;;;;;5060966;28;20427;-60
2024/03/02 09:32:47;;;;;;;13.75;9.98;;;7.80;91.90;;;;;;5062472;28;20040;-62
2024/03/02 09:35:13;;;;;;;18.80;9.60;;;7.90;91.90;;;;;;5063574;28;20458;-61
2024/03/02 09:37:38;;;;;;;11.45;9.88;;;7.90;91.90;;;;;;5062191;28;20039;-61
2024/03/02 09:40:06;;;;;;;12.23;9.07;;;7.90;91.90;;;;;;5065312;28;20032;-61
2024/03/02 09:42:32;;;;;;;12.18;9.57;;;7.90;92.00;;;;;;5064516;28;20499;-60
2024/03/02 09:44:58;;;;;;;10.82;8.63;;;8.00;92.00;;;;;;5057532;28;20044;-61
2024/03/02 09:47:24;;;;;;;12.20;9.32;;;8.00;92.10;;;;;;5063993;28;20059;-62
2024/03/02 09:49:49;;;;;;;11.32;9.25;;;8.00;92.10;;;;;;5061907;28;20105;-62
2024/03/02 09:52:16;;;;;;;11.25;9.35;;;8.10;92.10;;;;;;5059688;28;20385;-62
2024/03/02 09:54:41;;;;;;;12.85;9.85;;;8.20;92.10;;;;;;5062962;28;20040;-63
2024/03/02 09:57:07;;;;;;;12.75;9.95;;;8.20;92.00;;;;;;5063124;28;20037;-62
2024/03/02 09:59:32;;;;;;;13.02;10.48;;;8.30;92.10;;;;;;5062350;28;20079;-62
2024/03/02 10:01:59;;;;;;;12.60;10.40;;;8.30;92.00;;;;;;5065610;28;20036;-62
2024/03/02 10:04:31;;;;;;;11.75;9.93;;;8.40;91.90;;;;;;5061324;28;20041;-62
2024/03/02 10:07:09;;;;;;;15.80;9.88;;;8.40;91.90;;;;;;5060412;28;20492;-62
2024/03/02 10:09:34;;;;;;;13.93;10.00;;;8.50;91.80;;;;;;5062678;28;20040;-62
2024/03/02 10:12:08;;;;;;;19.65;10.02;;;8.60;91.80;;;;;;5061417;28;20554;-62
2024/03/02 10:14:34;;;;;;;12.05;9.77;;;8.60;91.60;;;;;;5065267;28;20033;-62
2024/03/02 10:17:10;;;;;;;14.05;10.38;;;8.60;91.50;;;;;;5055406;28;20051;-61
2024/03/02 10:19:37;;;;;;;11.60;9.60;;;8.60;91.70;;;;;;5059172;28;20124;-62
2024/03/02 10:22:07;;;;;;;11.05;8.95;;;8.70;91.80;;;;;;5053060;28;20405;-62
2024/03/02 10:24:44;;;;;;;11.75;9.30;;;8.70;91.80;;;;;;5058300;28;20090;-62
2024/03/02 10:27:15;;;;;;;13.18;9.65;;;8.80;91.90;;;;;;5064093;28;20122;-61
2024/03/02 10:29:42;;;;;;;17.05;10.13;;;8.90;91.90;;;;;;5059840;28;20116;-61
2024/03/02 10:32:11;;;;;;;11.98;10.18;;;8.90;91.90;;;;;;5064833;28;20040;-62
2024/03/02 10:34:38;;;;;;;11.48;9.55;;;9.00;91.70;;;;;;5063883;28;20036;-62
2024/03/02 10:37:05;;;;;;;11.60;9.23;;;9.00;91.50;;;;;;5059922;28;20044;-62
2024/03/02 10:39:31;;;;;;;11.27;9.38;;;9.00;91.50;;;;;;5064721;28;20530;-62
2024/03/02 10:41:58;;;;;;;13.15;10.27;;;9.00;91.60;;;;;;5060029;28;20032;-62
2024/03/02 10:44:25;;;;;;;13.90;10.75;;;9.10;91.60;;;;;;5060347;28;20044;-62
2024/03/02 10:46:53;;;;;;;14.98;10.60;;;9.10;91.50;;;;;;5060643;28;20040;-62
2024/03/02 10:49:20;;;;;;;15.05;11.00;;;9.10;91.40;;;;;;5064055;28;20399;-62
2024/03/02 10:51:46;;;;;;;13.32;10.75;;;9.20;91.60;;;;;;5057496;28;20504;-62
2024/03/02 10:54:12;;;;;;;13.15;10.07;;;9.20;91.80;;;;;;5059279;28;20036;-62
2024/03/02 10:56:44;;;;;;;13.95;10.35;;;9.30;91.80;;;;;;5060643;28;20028;-60
2024/03/02 10:59:38;;;;;;;15.38;11.32;;;9.30;91.70;;;;;;5057874;28;20036;-63
2024/03/02 11:02:06;;;;;;;12.80;10.13;;;9.40;91.40;;;;;;5060099;28;20484;-62
2024/03/02 11:04:34;;;;;;;14.65;10.40;;;9.50;91.50;;;;;;5055157;28;20048;-62
2024/03/02 11:07:06;;;;;;;12.10;9.95;;;9.50;91.30;;;;;;5060348;28;20111;-62
2024/03/02 11:09:35;;;;;;;12.10;9.98;;;9.50;91.30;;;;;;5057389;28;20166;-61
2024/03/02 11:12:01;;;;;;;11.90;9.65;;;9.50;91.20;;;;;;5064719;28;20063;-62
2024/03/02 11:14:29;;;;;;;12.25;9.95;;;9.50;91.10;;;;;;5063266;28;20094;-62
2024/03/02 11:16:55;;;;;;;12.70;9.80;;;9.50;90.90;;;;;;5057466;28;20079;-62
2024/03/02 11:19:22;;;;;;;10.82;9.27;;;9.50;90.80;;;;;;5061975;28;20061;-62
2024/03/02 11:21:48;;;;;;;12.75;10.52;;;9.50;91.00;;;;;;5062177;28;20079;-60
2024/03/02 11:24:27;;;;;;;12.65;10.82;;;9.50;91.10;;;;;;5058825;28;20512;-60
2024/03/02 11:26:53;;;;;;;11.70;9.73;;;9.50;91.30;;;;;;5059754;28;20029;-60
2024/03/02 11:29:40;;;;;;;11.90;10.02;;;9.60;91.50;;;;;;5062882;28;20037;-62
2024/03/02 11:32:16;;;;;;;13.30;10.30;;;9.60;91.60;;;;;;5061300;28;20107;-61
2024/03/02 11:34:46;;;;;;;13.52;10.25;;;9.70;91.60;;;;;;5063813;28;20033;-62
2024/03/02 11:37:13;;;;;;;14.02;11.00;;;9.70;91.50;;;;;;5060019;28;20028;-59
2024/03/02 11:39:39;;;;;;;17.10;12.10;;;9.80;91.30;;;;;;5062844;28;20063;-62
2024/03/02 11:42:10;;;;;;;13.00;11.20;;;9.90;91.50;;;;;;5058132;28;20132;-62
2024/03/02 11:44:41;;;;;;;14.32;11.32;;;9.90;91.50;;;;;;5062324;28;20510;-61
2024/03/02 11:47:10;;;;;;;13.25;10.75;;;9.90;91.60;;;;;;5059351;28;20459;-62
2024/03/02 11:49:47;;;;;;;13.10;9.98;;;10.00;91.50;;;;;;5057764;28;20040;-62
2024/03/02 11:52:15;;;;;;;13.40;11.10;;;10.10;91.70;;;;;;5062192;28;20043;-62
2024/03/02 11:54:51;;;;;;;13.10;10.75;;;10.20;91.60;;;;;;5060638;28;20070;-63
2024/03/02 11:57:19;;;;;;;12.25;10.07;;;10.20;91.50;;;;;;5062534;28;20454;-62
2024/03/02 11:59:45;;;;;;;12.25;10.93;;;10.30;91.50;;;;;;5066132;28;20133;-62
2024/03/02 12:02:20;;;;;;;12.60;10.40;;;10.40;91.50;;;;;;5061811;28;20041;-62
2024/03/02 12:04:48;;;;;;;12.15;10.13;;;10.40;91.30;;;;;;5061939;28;20496;-62
2024/03/02 12:07:23;;;;;;;11.50;9.63;;;10.50;91.30;;;;;;5062978;28;20036;-62
2024/03/02 12:09:50;;;;;;;12.57;10.43;;;10.60;91.30;;;;;;5058365;28;20063;-61
2024/03/02 12:12:18;;;;;;;11.40;9.05;;;10.70;91.40;;;;;;5060484;28;20071;-62
2024/03/02 12:14:52;;;;;;;11.10;9.90;;;10.80;91.30;;;;;;5064763;28;20044;-60
2024/03/02 12:17:17;;;;;;;10.77;9.40;;;10.90;91.20;;;;;;5057903;28;20042;-62
2024/03/02 12:19:44;;;;;;;10.93;9.15;;;11.00;91.00;;;;;;5057286;28;20420;-61
2024/03/02 12:22:09;;;;;;;10.30;8.77;;;11.00;90.90;;;;;;5066053;28;20440;-62
2024/03/02 12:24:35;;;;;;;11.80;8.70;;;11.10;90.90;;;;;;5061743;28;20578;-60
2024/03/02 12:27:01;;;;;;;9.77;8.55;;;11.10;90.80;;;;;;5061921;28;20431;-62
2024/03/02 12:29:27;;;;;;;10.38;8.88;;;11.20;90.80;;;;;;5064498;28;20040;-62
2024/03/02 12:31:53;;;;;;;11.93;9.30;;;11.20;90.70;;;;;;5061497;28;20075;-62
2024/03/02 12:34:19;;;;;;;9.77;8.70;;;11.30;90.50;;;;;;5057506;28;20439;-63
2024/03/02 12:36:49;;;;;;;11.18;8.60;;;11.40;90.50;;;;;;5060102;28;20044;-62
2024/03/02 12:39:16;;;;;;;9.82;8.80;;;11.40;90.50;;;;;;5061765;28;20040;-62
2024/03/02 12:41:42;;;;;;;9.95;8.35;;;11.50;90.70;;;;;;5062958;28;20052;-61
2024/03/02 12:44:07;;;;;;;10.15;8.80;;;11.50;90.80;;;;;;5059192;28;20048;-61